Time;durP1;ratioP1;P1;durP2;ratioP2;P2;SDS_P1;SDS_P2;PMS_P1;PMS_P2;Temp;Humidity;BMP_temperature;BMP_pressure;BME280_temperature;BME280_humidity;BME280_pressure;Samples;Min_cycle;Max_cycle;Signal;HPM_P1;HPM_P2
2021/06/02 00:01:23;;;;;;;6.67;2.40;;;15.60;51.10;;;;;;6187267;23;20023;-84
2021/06/02 00:03:49;;;;;;;4.10;2.27;;;15.60;51.20;;;;;;6187361;23;20005;-85
2021/06/02 00:06:15;;;;;;;3.20;2.07;;;15.60;51.50;;;;;;6187903;23;20027;-84
2021/06/02 00:08:43;;;;;;;3.77;2.20;;;15.50;51.80;;;;;;6215699;23;20379;-84
2021/06/02 00:11:09;;;;;;;4.07;1.73;;;15.50;52.10;;;;;;6189145;23;20044;-85
2021/06/02 00:13:35;;;;;;;6.03;2.10;;;15.40;52.00;;;;;;6189454;23;20009;-84
2021/06/02 00:16:02;;;;;;;2.20;1.90;;;15.40;52.20;;;;;;6215719;23;19996;-85
2021/06/02 00:18:28;;;;;;;5.63;1.70;;;15.40;51.90;;;;;;6189439;23;20000;-84
2021/06/02 00:20:56;;;;;;;4.10;2.00;;;15.40;51.40;;;;;;6188690;23;20443;-84
2021/06/02 00:23:22;;;;;;;3.20;2.10;;;15.50;51.20;;;;;;6188647;23;20011;-84
2021/06/02 00:25:48;;;;;;;4.83;2.20;;;15.50;50.90;;;;;;6188828;23;20008;-84
2021/06/02 00:28:16;;;;;;;4.90;2.33;;;15.50;50.70;;;;;;6189129;23;20031;-84
2021/06/02 00:30:44;;;;;;;2.27;1.67;;;15.50;50.60;;;;;;6189262;23;20004;-84
2021/06/02 00:33:11;;;;;;;4.17;2.00;;;15.60;50.50;;;;;;6189041;23;20382;-84
2021/06/02 00:35:38;;;;;;;3.70;2.43;;;15.50;50.30;;;;;;6188754;23;20028;-84
2021/06/02 00:38:04;;;;;;;2.43;1.97;;;15.40;50.40;;;;;;6189053;23;20435;-84
2021/06/02 00:40:51;;;;;;;2.23;1.93;;;15.40;50.40;;;;;;6187477;23;20088;-84
2021/06/02 00:43:18;;;;;;;4.20;2.27;;;15.30;50.60;;;;;;6188609;23;20082;-84
2021/06/02 00:45:46;;;;;;;4.63;2.40;;;15.30;50.70;;;;;;6188185;23;20012;-84
2021/06/02 00:48:18;;;;;;;3.70;2.40;;;15.30;50.70;;;;;;6189013;23;20009;-84
2021/06/02 00:50:51;;;;;;;3.47;2.20;;;15.30;50.60;;;;;;6188643;23;20342;-84
2021/06/02 00:53:18;;;;;;;7.77;2.40;;;15.30;50.70;;;;;;6188452;23;20004;-85
2021/06/02 00:55:44;;;;;;;5.67;2.30;;;15.20;50.60;;;;;;6189035;23;20005;-83
2021/06/02 00:58:24;;;;;;;2.37;1.90;;;15.20;50.80;;;;;;6188081;23;20011;-84
2021/06/02 01:00:49;;;;;;;5.17;3.07;;;15.20;51.00;;;;;;6188153;23;20008;-84
2021/06/02 01:03:26;;;;;;;7.37;2.60;;;15.10;50.80;;;;;;6188516;23;20035;-84
2021/06/02 01:05:56;;;;;;;6.60;2.47;;;15.10;51.10;;;;;;6183770;23;20470;-84
2021/06/02 01:08:23;;;;;;;4.73;2.67;;;15.10;51.10;;;;;;6183936;23;20372;-84
2021/06/02 01:10:50;;;;;;;3.33;2.10;;;15.10;51.10;;;;;;6183795;23;20032;-84
2021/06/02 01:13:19;;;;;;;4.23;2.00;;;15.00;51.20;;;;;;6182948;23;20008;-84
2021/06/02 01:15:48;;;;;;;7.00;2.47;;;14.90;51.30;;;;;;6183289;23;20005;-84
2021/06/02 01:18:14;;;;;;;2.93;2.07;;;14.90;51.40;;;;;;6184095;23;20487;-84
2021/06/02 01:20:40;;;;;;;2.70;2.17;;;14.90;51.60;;;;;;6182426;23;20501;-84
2021/06/02 01:23:08;;;;;;;3.40;2.60;;;14.90;51.80;;;;;;6184503;23;20449;-83
2021/06/02 01:25:35;;;;;;;4.30;2.33;;;14.70;52.20;;;;;;6182995;23;20040;-84
2021/06/02 01:28:03;;;;;;;7.40;2.93;;;14.70;52.70;;;;;;6182229;23;20115;-84
2021/06/02 01:30:29;;;;;;;4.90;2.47;;;14.70;53.00;;;;;;6179940;23;20090;-84
2021/06/02 01:33:07;;;;;;;5.00;2.33;;;14.70;53.20;;;;;;6181820;23;20009;-84
2021/06/02 01:35:54;;;;;;;4.10;2.20;;;14.60;53.80;;;;;;6184343;23;20379;-84
2021/06/02 01:38:58;;;;;;;7.27;2.53;;;14.50;53.90;;;;;;6185601;23;20012;-85
2021/06/02 01:41:24;;;;;;;3.13;2.20;;;14.50;54.10;;;;;;6187669;23;20008;-84
2021/06/02 01:44:26;;;;;;;5.70;2.70;;;14.50;54.00;;;;;;6183623;23;20570;-83
2021/06/02 01:47:18;;;;;;;4.03;2.85;;;14.50;54.50;;;;;;6185424;23;20005;-84
2021/06/02 01:50:05;;;;;;;5.87;2.30;;;14.30;54.50;;;;;;6148463;23;20723;-84
2021/06/02 01:52:33;;;;;;;4.17;3.00;;;14.30;55.20;;;;;;6184654;23;20001;-84
2021/06/02 01:55:37;;;;;;;5.30;2.70;;;14.20;55.20;;;;;;6184149;23;20679;-84
2021/06/02 01:58:12;;;;;;;3.47;2.80;;;14.10;55.80;;;;;;6182876;23;20013;-84
2021/06/02 02:00:43;;;;;;;3.73;2.50;;;14.10;55.80;;;;;;6182656;23;20047;-84
2021/06/02 02:03:28;;;;;;;3.30;2.73;;;13.90;56.00;;;;;;6182694;23;20032;-84
2021/06/02 02:06:17;;;;;;;3.23;2.50;;;13.80;56.30;;;;;;6183270;23;20021;-84
2021/06/02 02:08:44;;;;;;;3.90;3.17;;;13.80;56.40;;;;;;6183190;23;20072;-84
2021/06/02 02:11:29;;;;;;;6.97;2.83;;;13.80;56.40;;;;;;6183146;23;20024;-84
2021/06/02 02:14:13;;;;;;;4.80;2.50;;;13.80;56.60;;;;;;6183508;23;20039;-83
2021/06/02 02:16:38;;;;;;;5.40;2.77;;;13.80;56.60;;;;;;6183511;23;20454;-84
2021/06/02 02:19:13;;;;;;;6.63;2.70;;;13.70;56.80;;;;;;6181438;23;20005;-86
2021/06/02 02:21:46;;;;;;;3.83;2.33;;;13.70;57.10;;;;;;6183138;23;20591;-84
2021/06/02 02:24:12;;;;;;;7.23;3.10;;;13.70;57.10;;;;;;6186639;23;19997;-90
2021/06/02 02:27:01;;;;;;;4.97;2.90;;;13.70;57.10;;;;;;6188418;23;20055;-89
2021/06/02 02:29:45;;;;;;;7.87;2.67;;;13.80;57.00;;;;;;6145237;23;20339;-90
2021/06/02 02:32:17;;;;;;;3.37;2.40;;;13.80;56.90;;;;;;6187851;23;20007;-90
2021/06/02 02:34:56;;;;;;;7.13;2.72;;;13.70;57.00;;;;;;6187092;23;20001;-90
2021/06/02 02:37:59;;;;;;;8.50;2.70;;;13.50;57.50;;;;;;6186948;23;20004;-90
2021/06/02 02:40:31;;;;;;;4.18;2.70;;;13.50;57.90;;;;;;6187123;23;20458;-90
2021/06/02 02:43:07;;;;;;;7.63;2.90;;;13.50;57.80;;;;;;6188413;23;20001;-90
2021/06/02 02:45:44;;;;;;;5.77;3.20;;;13.40;58.20;;;;;;6187353;23;20005;-89
2021/06/02 02:48:26;;;;;;;4.47;2.50;;;13.40;58.20;;;;;;6187369;23;20325;-90
2021/06/02 02:51:23;;;;;;;7.25;2.72;;;13.40;58.30;;;;;;6186340;23;20093;-90
2021/06/02 02:53:53;;;;;;;4.47;3.03;;;13.30;58.40;;;;;;6193026;23;20503;-90
2021/06/02 02:56:25;;;;;;;7.53;2.77;;;13.30;58.40;;;;;;6198376;23;19997;-89
2021/06/02 02:59:20;;;;;;;6.65;2.70;;;13.30;58.30;;;;;;6199709;23;20009;-88
2021/06/02 03:02:26;;;;;;;5.83;3.40;;;13.40;58.30;;;;;;6191545;23;20055;-89
2021/06/02 03:04:56;;;;;;;4.33;3.07;;;13.40;58.30;;;;;;6172739;23;20005;-89
2021/06/02 03:07:23;;;;;;;5.00;3.20;;;13.30;58.40;;;;;;6189734;23;20035;-90
2021/06/02 03:10:01;;;;;;;5.13;3.30;;;13.30;58.40;;;;;;6189476;23;20005;-90
2021/06/02 03:12:55;;;;;;;8.93;5.27;;;13.30;58.40;;;;;;6189625;23;20062;-90
2021/06/02 03:15:50;;;;;;;4.30;3.90;;;13.30;58.60;;;;;;6189786;23;20008;-89
2021/06/02 03:18:45;;;;;;;4.47;3.63;;;13.30;58.60;;;;;;6216521;23;20001;-90
2021/06/02 03:21:13;;;;;;;5.10;3.93;;;13.30;58.80;;;;;;6190122;23;20343;-90
2021/06/02 03:23:48;;;;;;;6.00;3.80;;;13.20;59.00;;;;;;6187332;23;20012;-89
2021/06/02 03:26:17;;;;;;;4.93;2.97;;;13.10;59.40;;;;;;6184053;23;20324;-89
2021/06/02 03:29:13;;;;;;;5.83;3.27;;;13.00;59.60;;;;;;6214697;23;19997;-90
2021/06/02 03:31:58;;;;;;;5.77;3.03;;;13.10;59.90;;;;;;6189211;23;20009;-90
2021/06/02 03:34:45;;;;;;;5.40;3.20;;;13.00;59.70;;;;;;6188710;23;19997;-90
2021/06/02 03:37:18;;;;;;;8.53;3.77;;;12.90;60.10;;;;;;6189508;23;20001;-89
2021/06/02 03:40:22;;;;;;;7.13;2.83;;;12.90;60.20;;;;;;6215949;23;20157;-90
2021/06/02 03:42:53;;;;;;;6.15;3.00;;;12.90;60.20;;;;;;6185194;23;20429;-88
2021/06/02 03:45:38;;;;;;;6.37;3.50;;;12.90;60.00;;;;;;6186148;23;20300;-90
2021/06/02 03:48:29;;;;;;;4.80;3.17;;;12.80;60.20;;;;;;6216516;23;20005;-89
2021/06/02 03:50:54;;;;;;;6.33;3.40;;;12.90;60.30;;;;;;6190767;23;20012;-89
2021/06/02 03:53:46;;;;;;;10.00;3.57;;;12.90;59.90;;;;;;6190746;23;20008;-90
2021/06/02 03:56:49;;;;;;;4.33;3.20;;;13.00;60.10;;;;;;6138126;23;20008;-89
2021/06/02 03:59:36;;;;;;;5.25;2.80;;;13.00;59.90;;;;;;6191485;23;20403;-89
2021/06/02 04:02:29;;;;;;;5.13;2.77;;;13.10;59.90;;;;;;6190617;23;20000;-89
2021/06/02 04:05:30;;;;;;;5.43;3.20;;;13.10;59.70;;;;;;6190991;23;20005;-90
2021/06/02 04:08:14;;;;;;;5.07;3.10;;;13.10;59.80;;;;;;6190148;23;20016;-89
2021/06/02 04:10:54;;;;;;;6.67;3.40;;;13.20;59.60;;;;;;6191144;23;20087;-89
2021/06/02 04:13:35;;;;;;;5.87;3.07;;;13.20;59.60;;;;;;6191230;23;20008;-90
2021/06/02 04:16:15;;;;;;;5.63;3.13;;;13.10;59.90;;;;;;6190916;23;20013;-90
2021/06/02 04:18:46;;;;;;;4.87;3.63;;;13.10;60.00;;;;;;6191122;23;20078;-89
2021/06/02 04:21:22;;;;;;;5.47;3.25;;;13.20;59.70;;;;;;6191090;23;20008;-89
2021/06/02 04:23:48;;;;;;;10.43;4.23;;;13.30;59.60;;;;;;6190268;23;20095;-89
2021/06/02 04:26:15;;;;;;;9.97;5.67;;;13.40;59.50;;;;;;6190231;23;20602;-89
2021/06/02 04:28:41;;;;;;;10.03;6.07;;;13.30;59.60;;;;;;6191484;23;20067;-90
2021/06/02 04:31:10;;;;;;;6.33;3.83;;;13.30;60.00;;;;;;6191239;23;20009;-89
2021/06/02 04:33:38;;;;;;;8.43;4.00;;;13.20;60.00;;;;;;6190748;23;20008;-89
2021/06/02 04:36:05;;;;;;;8.53;4.40;;;13.10;60.10;;;;;;6217775;23;20419;-90
2021/06/02 04:38:32;;;;;;;8.53;4.90;;;13.10;60.30;;;;;;6216502;23;19997;-89
2021/06/02 04:41:02;;;;;;;14.17;5.03;;;13.10;60.70;;;;;;6217135;23;20455;-89
2021/06/02 04:43:31;;;;;;;11.77;4.30;;;13.10;60.70;;;;;;6216651;23;20000;-90
2021/06/02 04:46:00;;;;;;;10.57;5.27;;;13.20;60.70;;;;;;6190796;23;20004;-89
2021/06/02 04:48:26;;;;;;;7.33;4.33;;;13.20;60.90;;;;;;6190738;23;20004;-89
2021/06/02 04:51:19;;;;;;;10.27;4.47;;;13.20;60.90;;;;;;6190976;23;20004;-90
2021/06/02 04:54:24;;;;;;;10.38;4.95;;;13.20;60.90;;;;;;6190101;23;19996;-90
2021/06/02 04:57:24;;;;;;;15.47;7.03;;;13.20;61.40;;;;;;6190467;23;20506;-90
2021/06/02 05:00:11;;;;;;;12.50;7.43;;;13.30;61.30;;;;;;6190063;23;20513;-88
2021/06/02 05:02:55;;;;;;;10.17;5.80;;;13.40;61.10;;;;;;6190583;23;20008;-89
2021/06/02 05:05:24;;;;;;;10.50;6.43;;;13.40;61.00;;;;;;6190718;23;20009;-90
2021/06/02 05:08:17;;;;;;;11.57;5.70;;;13.50;60.80;;;;;;6190367;23;20032;-88
2021/06/02 05:10:58;;;;;;;;;;;13.60;61.10;;;;;;6190930;23;20012;-90
2021/06/02 05:13:52;;;;;;;10.37;5.23;;;13.70;60.70;;;;;;6190352;23;20337;-89
2021/06/02 05:16:55;;;;;;;7.23;4.50;;;13.70;60.90;;;;;;6190778;23;20001;-89
2021/06/02 05:22:42;;;;;;;8.63;5.30;;;13.80;61.20;;;;;;6216671;23;20016;-89
2021/06/02 05:26:01;;;;;;;19.27;7.27;;;13.90;61.60;;;;;;6190583;23;20004;-89
2021/06/02 05:28:44;;;;;;;7.67;5.83;;;14.00;61.50;;;;;;6190773;23;20059;-88
2021/06/02 05:31:41;;;;;;;10.77;6.13;;;14.00;60.90;;;;;;6190494;23;20004;-90
2021/06/02 05:34:55;;;;;;;8.90;5.87;;;14.10;61.10;;;;;;6190806;23;20005;-90
2021/06/02 05:37:49;;;;;;;9.07;5.87;;;14.20;61.20;;;;;;6191527;23;20000;-89
2021/06/02 05:40:36;;;;;;;9.97;5.83;;;14.30;61.20;;;;;;6190452;23;20071;-89
2021/06/02 05:43:10;;;;;;;8.93;5.73;;;14.30;61.50;;;;;;6190002;23;20043;-89
2021/06/02 05:45:39;;;;;;;8.77;5.50;;;14.30;61.30;;;;;;6216824;23;20000;-89
2021/06/02 05:48:41;;;;;;;11.33;5.83;;;14.40;61.00;;;;;;6216982;23;20012;-89
2021/06/02 05:51:35;;;;;;;9.23;5.90;;;14.40;61.00;;;;;;6186887;23;20020;-89
2021/06/02 05:54:38;;;;;;;12.43;6.27;;;14.40;60.60;;;;;;6186078;23;20286;-89
2021/06/02 05:57:10;;;;;;;;;;;14.50;61.00;;;;;;6190521;23;20008;-90
2021/06/02 06:00:03;;;;;;;8.40;5.43;;;14.40;60.60;;;;;;6190263;23;20384;-89
2021/06/02 06:02:41;;;;;;;10.63;5.22;;;14.50;60.40;;;;;;6190530;23;20284;-90
2021/06/02 06:05:16;;;;;;;10.87;5.17;;;14.50;60.40;;;;;;6189597;23;20019;-89
2021/06/02 06:08:08;;;;;;;10.57;5.13;;;14.50;60.00;;;;;;6190647;23;20059;-89
2021/06/02 06:10:49;;;;;;;9.65;5.32;;;14.70;59.50;;;;;;6190125;23;20009;-88
2021/06/02 06:13:52;;;;;;;7.37;4.80;;;14.70;59.30;;;;;;6190703;23;20007;-89
2021/06/02 06:16:37;;;;;;;7.93;4.95;;;14.80;59.40;;;;;;6190516;23;20005;-89
2021/06/02 06:19:34;;;;;;;9.50;4.43;;;14.80;59.30;;;;;;6189023;23;20084;-90
2021/06/02 06:22:42;;;;;;;5.57;4.73;;;14.80;59.70;;;;;;6190052;23;20008;-90
2021/06/02 06:25:16;;;;;;;10.47;4.97;;;14.90;59.60;;;;;;6042791;23;20043;-90
2021/06/02 06:27:50;;;;;;;9.60;4.70;;;14.90;59.30;;;;;;6174707;23;20008;-89
2021/06/02 06:30:23;;;;;;;14.63;4.77;;;15.00;59.40;;;;;;6190620;23;20088;-89
2021/06/02 06:32:51;;;;;;;;;;;15.00;58.90;;;;;;6190245;23;20005;-89
2021/06/02 06:35:18;;;;;;;12.57;4.27;;;15.00;58.80;;;;;;6189569;23;19938;-89
2021/06/02 06:37:47;;;;;;;6.60;4.57;;;15.00;58.80;;;;;;6190118;23;20004;-90
2021/06/02 06:40:19;;;;;;;7.37;4.00;;;15.10;58.80;;;;;;6190039;23;20385;-90
2021/06/02 06:42:51;;;;;;;8.13;4.90;;;15.20;58.80;;;;;;6189440;23;20005;-89
2021/06/02 06:45:34;;;;;;;6.00;3.95;;;15.20;58.60;;;;;;6189048;23;20012;-89
2021/06/02 06:48:08;;;;;;;6.20;4.13;;;15.30;58.90;;;;;;6188561;23;20004;-89
2021/06/02 06:50:34;;;;;;;10.87;4.63;;;15.40;58.80;;;;;;6188236;23;20473;-88
2021/06/02 06:53:05;;;;;;;12.93;5.37;;;15.50;58.70;;;;;;6190497;23;20011;-89
2021/06/02 06:55:31;;;;;;;8.70;4.70;;;15.70;58.40;;;;;;6188641;23;20007;-89
2021/06/02 06:57:58;;;;;;;8.53;4.77;;;15.80;58.30;;;;;;6193727;23;20383;-89
2021/06/02 07:00:25;;;;;;;12.23;4.70;;;15.90;58.20;;;;;;6193671;23;20075;-89
2021/06/02 07:02:51;;;;;;;7.17;4.53;;;16.00;57.90;;;;;;6219112;23;20043;-90
2021/06/02 07:05:19;;;;;;;11.40;4.70;;;16.10;57.70;;;;;;6183867;23;20024;-90
2021/06/02 07:07:45;;;;;;;6.33;4.40;;;16.30;57.30;;;;;;6183333;23;20424;-89
2021/06/02 07:10:13;;;;;;;9.10;4.53;;;16.40;57.20;;;;;;6185595;23;20036;-89
2021/06/02 07:12:41;;;;;;;9.20;4.67;;;16.50;57.00;;;;;;6184628;23;20080;-89
2021/06/02 07:15:09;;;;;;;9.80;4.67;;;16.60;57.10;;;;;;6184568;23;20009;-90
2021/06/02 07:17:42;;;;;;;8.90;4.60;;;16.70;57.00;;;;;;6184108;23;20028;-89
2021/06/02 07:20:10;;;;;;;;;;;16.90;56.80;;;;;;6184985;23;20005;-89
2021/06/02 07:22:42;;;;;;;9.40;4.40;;;17.00;56.50;;;;;;6184773;23;19911;-89
2021/06/02 07:25:08;;;;;;;;;;;17.10;56.40;;;;;;6187485;23;20446;-90
2021/06/02 07:27:38;;;;;;;8.63;4.10;;;17.20;56.30;;;;;;6185359;23;19928;-90
2021/06/02 07:30:05;;;;;;;8.48;4.50;;;17.40;56.10;;;;;;6183720;23;20001;-90
2021/06/02 07:32:31;;;;;;;7.43;4.55;;;17.50;55.60;;;;;;6184132;23;20093;-89
2021/06/02 07:34:56;;;;;;;15.23;4.70;;;17.50;55.10;;;;;;6186029;23;20029;-90
2021/06/02 07:37:22;;;;;;;10.43;4.15;;;17.60;55.00;;;;;;6182922;23;20001;-89
2021/06/02 07:39:49;;;;;;;19.45;4.50;;;17.70;54.80;;;;;;6183427;23;20009;-89
2021/06/02 07:42:15;;;;;;;9.77;5.22;;;17.90;54.80;;;;;;6183205;23;20104;-90
2021/06/02 07:44:41;;;;;;;7.13;4.20;;;18.10;54.90;;;;;;6185468;23;20029;-89
2021/06/02 07:47:07;;;;;;;11.98;4.50;;;18.20;54.30;;;;;;6185502;23;20424;-89
2021/06/02 07:49:34;;;;;;;13.25;5.00;;;18.30;54.10;;;;;;6186087;23;20036;-89
2021/06/02 07:52:00;;;;;;;9.02;4.85;;;18.40;54.10;;;;;;6185025;23;20028;-90
2021/06/02 07:54:27;;;;;;;23.27;5.15;;;18.60;54.10;;;;;;6184792;23;20005;-90
2021/06/02 07:56:53;;;;;;;9.77;4.35;;;18.90;53.90;;;;;;6184368;23;20009;-90
2021/06/02 07:59:19;;;;;;;9.77;5.00;;;19.10;53.20;;;;;;6185073;23;20013;-90
2021/06/02 08:01:46;;;;;;;10.52;4.30;;;19.30;52.90;;;;;;6182887;23;19998;-90
2021/06/02 08:04:13;;;;;;;7.38;4.15;;;19.40;52.80;;;;;;6189594;23;20016;-90
2021/06/02 08:07:07;;;;;;;14.80;5.40;;;19.60;52.40;;;;;;6182894;23;20013;-89
2021/06/02 08:09:33;;;;;;;9.48;4.10;;;19.90;52.10;;;;;;6183345;23;20016;-89
2021/06/02 08:11:59;;;;;;;8.90;3.90;;;20.10;51.70;;;;;;6185895;23;20001;-90
2021/06/02 08:14:25;;;;;;;12.07;4.75;;;20.30;51.20;;;;;;6187614;23;20005;-91
2021/06/02 08:16:52;;;;;;;6.47;3.30;;;20.50;50.70;;;;;;6186181;23;20503;-91
2021/06/02 08:19:18;;;;;;;14.10;4.88;;;20.70;50.40;;;;;;6185678;23;20016;-91
2021/06/02 08:21:43;;;;;;;9.73;4.82;;;20.80;50.00;;;;;;6185097;23;20360;-90
2021/06/02 08:24:10;;;;;;;6.63;4.03;;;20.80;49.70;;;;;;6196219;23;20059;-91
2021/06/02 08:26:38;;;;;;;9.45;4.15;;;21.00;49.80;;;;;;6196885;23;20016;-91
2021/06/02 08:29:04;;;;;;;10.48;3.65;;;21.10;49.80;;;;;;6198484;23;20428;-91
2021/06/02 08:31:31;;;;;;;7.45;4.32;;;21.30;49.30;;;;;;6192187;23;20032;-90
2021/06/02 08:34:01;;;;;;;5.13;3.92;;;21.40;48.70;;;;;;6191369;23;20033;-91
2021/06/02 08:36:27;;;;;;;8.75;4.45;;;21.50;48.30;;;;;;6192436;23;20343;-91
2021/06/02 08:38:53;;;;;;;6.28;4.20;;;21.60;48.00;;;;;;6191716;23;20015;-91
2021/06/02 08:41:20;;;;;;;5.97;3.90;;;21.70;47.60;;;;;;6190537;23;20005;-91
2021/06/02 08:43:48;;;;;;;7.30;4.50;;;21.70;47.60;;;;;;6192620;23;20024;-91
2021/06/02 08:46:15;;;;;;;9.50;3.78;;;21.90;47.40;;;;;;6190252;23;20005;-91
2021/06/02 08:48:45;;;;;;;7.63;3.97;;;22.00;47.00;;;;;;6191609;23;20047;-91
2021/06/02 08:51:11;;;;;;;6.28;4.00;;;22.20;46.80;;;;;;6189724;23;20013;-92
2021/06/02 08:53:37;;;;;;;7.93;4.00;;;22.30;46.60;;;;;;6190753;23;20008;-91
2021/06/02 08:56:04;;;;;;;9.18;4.65;;;22.50;46.40;;;;;;6185139;23;20029;-90
2021/06/02 08:58:30;;;;;;;10.68;4.70;;;22.50;46.20;;;;;;6193243;23;20000;-91
2021/06/02 09:00:56;;;;;;;11.85;4.35;;;22.60;45.80;;;;;;6197119;23;20012;-91
2021/06/02 09:03:23;;;;;;;4.53;3.47;;;22.60;45.70;;;;;;6196422;23;20096;-92
2021/06/02 09:05:49;;;;;;;6.95;3.72;;;22.80;45.40;;;;;;6197289;23;20023;-91
2021/06/02 09:08:23;;;;;;;7.70;4.07;;;22.90;45.10;;;;;;6192392;23;20012;-91
2021/06/02 09:10:49;;;;;;;8.57;4.28;;;23.10;44.70;;;;;;6186468;23;20013;-90
2021/06/02 09:13:21;;;;;;;7.63;3.70;;;23.30;44.70;;;;;;6187022;23;20001;-91
2021/06/02 09:15:48;;;;;;;;;;;23.40;44.80;;;;;;6187540;23;20061;-91
2021/06/02 09:18:18;;;;;;;9.65;3.47;;;23.40;45.00;;;;;;6183252;23;19900;-90
2021/06/02 09:20:48;;;;;;;8.70;3.47;;;23.60;45.00;;;;;;6186231;23;20432;-91
2021/06/02 09:23:36;;;;;;;5.07;3.33;;;23.60;44.70;;;;;;6185661;23;20009;-90
2021/06/02 09:26:11;;;;;;;7.43;3.50;;;23.70;44.00;;;;;;6185434;23;20012;-91
2021/06/02 09:28:51;;;;;;;9.18;3.97;;;23.70;44.00;;;;;;6185816;23;20336;-91
2021/06/02 09:31:32;;;;;;;9.18;3.42;;;23.60;43.70;;;;;;6185844;23;20009;-91
2021/06/02 09:34:19;;;;;;;6.60;3.88;;;23.50;44.30;;;;;;6186838;23;20309;-91
2021/06/02 09:36:47;;;;;;;4.68;3.67;;;23.70;44.70;;;;;;6186449;23;20001;-91
2021/06/02 09:39:16;;;;;;;6.63;3.42;;;23.80;45.00;;;;;;6186113;23;20091;-91
2021/06/02 09:41:51;;;;;;;5.10;3.33;;;24.10;44.30;;;;;;6185519;23;20116;-91
2021/06/02 09:44:22;;;;;;;5.93;3.38;;;24.20;43.90;;;;;;6185830;23;20005;-91
2021/06/02 09:47:06;;;;;;;6.65;3.90;;;24.20;43.70;;;;;;6186342;23;20001;-91
2021/06/02 09:49:52;;;;;;;9.35;3.67;;;24.10;44.00;;;;;;6187707;23;20001;-91
2021/06/02 09:52:19;;;;;;;5.38;2.80;;;24.00;43.90;;;;;;6186273;23;20008;-92
2021/06/02 09:54:46;;;;;;;10.50;3.20;;;24.00;44.60;;;;;;6187642;23;20419;-91
2021/06/02 09:57:13;;;;;;;7.75;3.78;;;24.20;44.50;;;;;;6187394;23;20001;-91
2021/06/02 09:59:56;;;;;;;6.28;3.75;;;24.20;43.90;;;;;;6182725;23;20009;-90
2021/06/02 10:02:22;;;;;;;7.95;4.60;;;24.10;44.20;;;;;;6176969;23;20009;-91
2021/06/02 10:05:16;;;;;;;7.80;3.60;;;24.30;43.30;;;;;;6185155;23;20025;-91
2021/06/02 10:07:44;;;;;;;6.50;3.30;;;24.40;42.90;;;;;;6217035;23;20039;-91
2021/06/02 10:10:19;;;;;;;6.93;3.78;;;24.60;42.50;;;;;;6189910;23;20394;-91
2021/06/02 10:13:01;;;;;;;8.80;3.25;;;24.90;42.00;;;;;;6191256;23;20005;-91
2021/06/02 10:15:31;;;;;;;4.45;3.13;;;25.00;41.60;;;;;;6216898;23;19997;-91
2021/06/02 10:17:58;;;;;;;9.95;3.97;;;25.10;41.40;;;;;;6191079;23;20005;-91
2021/06/02 10:20:24;;;;;;;8.15;3.20;;;25.40;40.60;;;;;;6190779;23;20012;-91
2021/06/02 10:22:57;;;;;;;5.38;2.85;;;25.40;40.30;;;;;;6188326;23;20034;-90
2021/06/02 10:25:25;;;;;;;4.78;3.17;;;25.50;39.90;;;;;;6189055;23;20008;-91
2021/06/02 10:27:57;;;;;;;6.90;2.60;;;25.70;39.80;;;;;;6190012;23;20051;-91
2021/06/02 10:30:26;;;;;;;9.20;3.17;;;25.80;39.50;;;;;;6189676;23;20019;-90
2021/06/02 10:32:53;;;;;;;5.50;2.97;;;25.90;38.80;;;;;;6191140;23;20791;-91
2021/06/02 10:35:19;;;;;;;4.38;3.38;;;26.00;38.60;;;;;;6190283;23;20059;-91
2021/06/02 10:37:45;;;;;;;4.38;2.83;;;26.00;38.50;;;;;;6189370;23;20004;-91
2021/06/02 10:40:23;;;;;;;6.45;3.05;;;26.20;38.30;;;;;;6191322;23;20005;-91
2021/06/02 10:42:54;;;;;;;6.03;3.33;;;26.10;37.50;;;;;;6190189;23;20012;-92
2021/06/02 10:45:44;;;;;;;6.45;3.50;;;26.00;37.70;;;;;;6190862;23;20005;-91
2021/06/02 10:48:11;;;;;;;21.98;7.13;;;25.90;38.00;;;;;;6190541;23;20000;-90
2021/06/02 10:50:38;;;;;;;6.35;3.70;;;26.00;38.30;;;;;;6215914;23;20000;-91
2021/06/02 10:53:21;;;;;;;7.07;3.78;;;26.20;37.80;;;;;;6189077;23;20004;-91
2021/06/02 10:55:58;;;;;;;8.45;3.63;;;26.20;37.40;;;;;;6190753;23;20001;-90
2021/06/02 10:58:28;;;;;;;13.25;7.35;;;26.00;37.30;;;;;;6189686;23;20104;-91
2021/06/02 11:01:14;;;;;;;7.70;4.00;;;25.80;37.10;;;;;;6190086;23;20443;-91
2021/06/02 11:03:43;;;;;;;5.10;2.92;;;25.90;37.20;;;;;;6189505;23;20008;-91
2021/06/02 11:06:14;;;;;;;6.55;2.97;;;26.00;37.10;;;;;;6216609;23;20008;-91
2021/06/02 11:08:52;;;;;;;6.82;3.30;;;26.20;36.70;;;;;;6189872;23;20032;-92
2021/06/02 11:11:29;;;;;;;6.47;3.10;;;26.40;36.80;;;;;;6189214;23;20008;-91
2021/06/02 11:14:17;;;;;;;4.22;2.72;;;26.40;36.50;;;;;;6189381;23;20032;-91
2021/06/02 11:17:00;;;;;;;5.00;2.83;;;26.50;36.10;;;;;;6189700;23;20435;-91
2021/06/02 11:19:30;;;;;;;5.43;2.83;;;26.70;36.30;;;;;;6189506;23;20008;-91
2021/06/02 11:21:56;;;;;;;3.95;2.20;;;26.80;35.80;;;;;;6190106;23;20001;-91
2021/06/02 11:24:33;;;;;;;5.15;2.92;;;26.90;35.90;;;;;;6189341;23;20004;-92
2021/06/02 11:27:15;;;;;;;3.17;2.60;;;27.00;35.30;;;;;;6189252;23;20454;-91
2021/06/02 11:29:49;;;;;;;3.53;2.40;;;27.10;35.20;;;;;;6189569;23;20497;-91
2021/06/02 11:32:19;;;;;;;3.65;2.20;;;27.20;35.00;;;;;;6189718;23;20439;-91
2021/06/02 11:34:51;;;;;;;6.53;2.10;;;27.10;34.60;;;;;;6189074;23;20008;-91
2021/06/02 11:37:20;;;;;;;4.85;2.55;;;27.10;34.20;;;;;;6189646;23;20001;-91
2021/06/02 11:39:48;;;;;;;6.63;2.22;;;27.10;34.40;;;;;;6190131;23;20005;-91
2021/06/02 11:42:43;;;;;;;5.20;2.35;;;27.00;34.50;;;;;;6189752;23;20013;-92
2021/06/02 11:45:26;;;;;;;2.58;1.90;;;27.20;34.60;;;;;;6190118;23;20066;-90
2021/06/02 11:48:00;;;;;;;4.70;3.03;;;27.20;33.90;;;;;;6189516;23;20496;-92
2021/06/02 11:50:26;;;;;;;2.10;1.90;;;27.20;33.70;;;;;;6190517;23;20009;-91
2021/06/02 11:52:55;;;;;;;2.53;2.17;;;27.40;33.20;;;;;;6190424;23;20001;-93
2021/06/02 11:55:21;;;;;;;3.88;2.20;;;27.50;33.20;;;;;;6216384;23;19996;-92
2021/06/02 11:57:51;;;;;;;4.25;2.00;;;27.50;33.00;;;;;;6188944;23;20016;-91
2021/06/02 12:00:22;;;;;;;2.88;1.80;;;27.60;32.90;;;;;;6188394;23;20024;-90
2021/06/02 12:03:12;;;;;;;5.97;2.20;;;27.60;32.90;;;;;;6192661;23;20004;-91
2021/06/02 12:05:40;;;;;;;6.10;1.75;;;27.50;32.20;;;;;;6202415;23;20017;-91
2021/06/02 12:08:11;;;;;;;4.75;2.28;;;27.40;32.40;;;;;;6205421;23;20017;-91
2021/06/02 12:10:43;;;;;;;2.53;1.70;;;27.40;32.10;;;;;;6209070;23;20012;-91
2021/06/02 12:13:28;;;;;;;;;;;27.30;32.20;;;;;;6202337;23;20001;-91
2021/06/02 12:16:00;;;;;;;4.50;2.25;;;27.10;32.70;;;;;;6195741;23;19904;-91
2021/06/02 12:18:36;;;;;;;2.45;2.10;;;27.10;32.70;;;;;;6195802;23;20407;-91
2021/06/02 12:21:08;;;;;;;10.32;3.65;;;27.10;33.00;;;;;;6193923;23;20005;-91
2021/06/02 12:23:34;;;;;;;4.93;1.85;;;27.30;32.90;;;;;;6192315;23;20008;-92
2021/06/02 12:25:59;;;;;;;4.80;2.58;;;27.50;32.60;;;;;;6191529;23;20013;-91
2021/06/02 12:28:25;;;;;;;3.28;1.95;;;27.50;32.00;;;;;;6191707;23;20084;-91
2021/06/02 12:30:51;;;;;;;5.30;2.38;;;27.60;31.90;;;;;;6191996;23;20084;-91
2021/06/02 12:33:17;;;;;;;3.35;1.80;;;27.60;32.30;;;;;;6191881;23;20012;-92
2021/06/02 12:35:46;;;;;;;4.45;2.08;;;27.70;32.50;;;;;;6192102;23;20008;-91
2021/06/02 12:38:21;;;;;;;2.80;1.85;;;27.60;32.40;;;;;;6191301;23;20003;-91
2021/06/02 12:41:04;;;;;;;8.07;2.25;;;27.40;32.70;;;;;;6191159;23;20377;-92
2021/06/02 12:43:40;;;;;;;6.35;1.85;;;27.30;32.80;;;;;;6190883;23;20009;-91
2021/06/02 12:46:16;;;;;;;4.07;2.00;;;27.20;33.10;;;;;;6191296;23;20012;-91
2021/06/02 12:48:43;;;;;;;5.95;2.25;;;27.30;32.60;;;;;;6191346;23;20008;-91
2021/06/02 12:51:18;;;;;;;2.03;1.73;;;27.40;32.70;;;;;;6190694;23;20001;-91
2021/06/02 12:53:46;;;;;;;4.78;1.88;;;27.50;32.50;;;;;;6192553;23;20004;-91
2021/06/02 12:56:14;;;;;;;4.20;2.38;;;27.50;32.50;;;;;;6189884;23;20047;-91
2021/06/02 12:58:40;;;;;;;6.88;2.50;;;27.50;32.50;;;;;;6191337;23;20052;-91
2021/06/02 13:01:13;;;;;;;6.90;1.85;;;27.40;32.60;;;;;;6217120;23;20009;-91
2021/06/02 13:03:53;;;;;;;2.80;1.98;;;27.30;32.30;;;;;;6192217;23;20048;-91
2021/06/02 13:06:24;;;;;;;3.70;1.90;;;27.10;33.10;;;;;;6192197;23;20016;-91
2021/06/02 13:08:50;;;;;;;3.65;2.40;;;26.90;33.20;;;;;;6191135;23;20004;-91
2021/06/02 13:11:19;;;;;;;2.88;2.00;;;26.70;33.20;;;;;;6191236;23;20066;-91
2021/06/02 13:13:49;;;;;;;3.85;2.38;;;26.60;33.30;;;;;;6190607;23;20004;-91
2021/06/02 13:16:15;;;;;;;3.20;2.13;;;26.50;32.90;;;;;;6190482;23;20435;-91
2021/06/02 13:18:41;;;;;;;3.88;1.80;;;26.40;33.40;;;;;;6191560;23;20005;-91
2021/06/02 13:21:19;;;;;;;2.47;1.95;;;26.30;33.90;;;;;;6191233;23;20095;-91
2021/06/02 13:23:45;;;;;;;3.33;1.90;;;26.30;34.60;;;;;;6191174;23;20320;-92
2021/06/02 13:26:13;;;;;;;3.28;2.05;;;26.30;35.00;;;;;;6190423;23;20015;-91
2021/06/02 13:28:53;;;;;;;2.58;1.95;;;26.20;34.60;;;;;;6190161;23;20005;-91
2021/06/02 13:31:21;;;;;;;2.55;1.90;;;26.20;34.70;;;;;;6191355;23;20035;-91